sensor_id;sensor_type;location;lat;lon;timestamp;P1;durP1;ratioP1;P2;durP2;ratioP2
77038;SDS011;65970;50.476;4.840;2024-03-07T00:01:31;4.93;;;3.10;;
77038;SDS011;65970;50.476;4.840;2024-03-07T00:06:31;3.75;;;3.00;;
77038;SDS011;65970;50.476;4.840;2024-03-07T00:11:32;4.85;;;3.20;;
77038;SDS011;65970;50.476;4.840;2024-03-07T00:16:33;5.22;;;2.75;;
77038;SDS011;65970;50.476;4.840;2024-03-07T00:21:33;3.78;;;3.28;;
77038;SDS011;65970;50.476;4.840;2024-03-07T00:26:34;3.30;;;2.50;;
77038;SDS011;65970;50.476;4.840;2024-03-07T00:31:34;4.53;;;3.05;;
77038;SDS011;65970;50.476;4.840;2024-03-07T00:36:35;5.50;;;3.35;;
77038;SDS011;65970;50.476;4.840;2024-03-07T00:41:35;3.65;;;3.00;;
77038;SDS011;65970;50.476;4.840;2024-03-07T00:46:36;3.97;;;3.08;;
77038;SDS011;65970;50.476;4.840;2024-03-07T00:51:37;6.10;;;3.97;;
77038;SDS011;65970;50.476;4.840;2024-03-07T00:56:38;5.88;;;4.25;;
77038;SDS011;65970;50.476;4.840;2024-03-07T01:01:39;4.90;;;3.97;;
77038;SDS011;65970;50.476;4.840;2024-03-07T01:06:39;4.65;;;4.15;;
77038;SDS011;65970;50.476;4.840;2024-03-07T01:11:41;4.78;;;3.15;;
77038;SDS011;65970;50.476;4.840;2024-03-07T01:16:44;3.35;;;3.05;;
77038;SDS011;65970;50.476;4.840;2024-03-07T01:21:45;3.80;;;2.83;;
77038;SDS011;65970;50.476;4.840;2024-03-07T01:26:46;3.65;;;3.25;;
77038;SDS011;65970;50.476;4.840;2024-03-07T01:31:46;5.95;;;4.05;;
77038;SDS011;65970;50.476;4.840;2024-03-07T01:36:47;6.50;;;4.30;;
77038;SDS011;65970;50.476;4.840;2024-03-07T01:41:47;4.82;;;4.20;;
77038;SDS011;65970;50.476;4.840;2024-03-07T01:46:48;5.10;;;3.75;;
77038;SDS011;65970;50.476;4.840;2024-03-07T01:51:48;9.02;;;3.58;;
77038;SDS011;65970;50.476;4.840;2024-03-07T01:56:49;7.22;;;3.97;;
77038;SDS011;65970;50.476;4.840;2024-03-07T02:01:50;5.28;;;3.70;;
77038;SDS011;65970;50.476;4.840;2024-03-07T02:06:51;5.30;;;3.78;;
77038;SDS011;65970;50.476;4.840;2024-03-07T02:11:51;7.35;;;4.28;;
77038;SDS011;65970;50.476;4.840;2024-03-07T02:16:52;5.38;;;4.32;;
77038;SDS011;65970;50.476;4.840;2024-03-07T02:21:53;5.97;;;4.38;;
77038;SDS011;65970;50.476;4.840;2024-03-07T02:26:53;5.28;;;4.03;;
77038;SDS011;65970;50.476;4.840;2024-03-07T02:31:54;4.68;;;3.58;;
77038;SDS011;65970;50.476;4.840;2024-03-07T02:36:55;5.80;;;4.15;;
77038;SDS011;65970;50.476;4.840;2024-03-07T02:41:55;4.88;;;3.95;;
77038;SDS011;65970;50.476;4.840;2024-03-07T02:46:56;6.40;;;4.05;;
77038;SDS011;65970;50.476;4.840;2024-03-07T02:51:56;8.82;;;4.43;;
77038;SDS011;65970;50.476;4.840;2024-03-07T02:56:57;7.18;;;4.93;;
77038;SDS011;65970;50.476;4.840;2024-03-07T03:01:58;7.45;;;4.40;;
77038;SDS011;65970;50.476;4.840;2024-03-07T03:06:58;7.13;;;4.80;;
77038;SDS011;65970;50.476;4.840;2024-03-07T03:11:59;5.22;;;4.35;;
77038;SDS011;65970;50.476;4.840;2024-03-07T03:16:59;5.13;;;4.57;;
77038;SDS011;65970;50.476;4.840;2024-03-07T03:22:00;8.50;;;4.68;;
77038;SDS011;65970;50.476;4.840;2024-03-07T03:27:00;5.88;;;4.40;;
77038;SDS011;65970;50.476;4.840;2024-03-07T03:32:01;6.78;;;4.05;;
77038;SDS011;65970;50.476;4.840;2024-03-07T03:37:01;8.23;;;5.00;;
77038;SDS011;65970;50.476;4.840;2024-03-07T03:42:02;6.50;;;4.53;;
77038;SDS011;65970;50.476;4.840;2024-03-07T03:47:03;7.70;;;4.68;;
77038;SDS011;65970;50.476;4.840;2024-03-07T03:52:03;6.07;;;4.60;;
77038;SDS011;65970;50.476;4.840;2024-03-07T03:57:04;6.05;;;3.78;;
77038;SDS011;65970;50.476;4.840;2024-03-07T04:02:04;6.32;;;4.72;;
77038;SDS011;65970;50.476;4.840;2024-03-07T04:07:05;7.28;;;4.50;;
77038;SDS011;65970;50.476;4.840;2024-03-07T04:12:06;6.57;;;4.60;;
77038;SDS011;65970;50.476;4.840;2024-03-07T04:17:07;7.55;;;5.55;;
77038;SDS011;65970;50.476;4.840;2024-03-07T04:22:08;6.32;;;4.45;;
77038;SDS011;65970;50.476;4.840;2024-03-07T04:27:09;7.57;;;4.88;;
77038;SDS011;65970;50.476;4.840;2024-03-07T04:32:09;7.85;;;5.25;;
77038;SDS011;65970;50.476;4.840;2024-03-07T04:37:10;7.55;;;5.50;;
77038;SDS011;65970;50.476;4.840;2024-03-07T04:42:11;8.93;;;5.93;;
77038;SDS011;65970;50.476;4.840;2024-03-07T04:47:11;8.02;;;5.35;;
77038;SDS011;65970;50.476;4.840;2024-03-07T04:52:12;11.15;;;6.47;;
77038;SDS011;65970;50.476;4.840;2024-03-07T04:57:12;9.02;;;6.00;;
77038;SDS011;65970;50.476;4.840;2024-03-07T05:02:13;9.90;;;6.30;;
77038;SDS011;65970;50.476;4.840;2024-03-07T05:07:13;13.00;;;6.90;;
77038;SDS011;65970;50.476;4.840;2024-03-07T05:12:14;12.35;;;7.35;;
77038;SDS011;65970;50.476;4.840;2024-03-07T05:17:14;10.20;;;6.38;;
77038;SDS011;65970;50.476;4.840;2024-03-07T05:22:15;13.27;;;8.10;;
77038;SDS011;65970;50.476;4.840;2024-03-07T05:27:16;13.30;;;7.80;;
77038;SDS011;65970;50.476;4.840;2024-03-07T05:37:21;14.30;;;8.27;;
77038;SDS011;65970;50.476;4.840;2024-03-07T05:42:22;15.40;;;9.23;;
77038;SDS011;65970;50.476;4.840;2024-03-07T05:47:22;13.23;;;9.15;;
77038;SDS011;65970;50.476;4.840;2024-03-07T05:52:23;15.40;;;8.73;;
77038;SDS011;65970;50.476;4.840;2024-03-07T05:57:23;16.92;;;9.25;;
77038;SDS011;65970;50.476;4.840;2024-03-07T06:02:24;11.52;;;7.70;;
77038;SDS011;65970;50.476;4.840;2024-03-07T06:07:24;12.48;;;8.20;;
77038;SDS011;65970;50.476;4.840;2024-03-07T06:12:25;14.32;;;8.48;;
77038;SDS011;65970;50.476;4.840;2024-03-07T06:17:25;14.45;;;9.10;;
77038;SDS011;65970;50.476;4.840;2024-03-07T06:22:26;16.80;;;8.25;;
77038;SDS011;65970;50.476;4.840;2024-03-07T06:27:26;10.88;;;6.93;;
77038;SDS011;65970;50.476;4.840;2024-03-07T06:32:27;11.45;;;7.00;;
77038;SDS011;65970;50.476;4.840;2024-03-07T06:37:27;9.75;;;6.45;;
77038;SDS011;65970;50.476;4.840;2024-03-07T06:42:28;11.98;;;8.15;;
77038;SDS011;65970;50.476;4.840;2024-03-07T06:47:28;13.60;;;8.05;;
77038;SDS011;65970;50.476;4.840;2024-03-07T06:52:29;15.18;;;8.23;;
77038;SDS011;65970;50.476;4.840;2024-03-07T06:57:29;16.92;;;9.52;;
77038;SDS011;65970;50.476;4.840;2024-03-07T07:02:30;12.20;;;7.20;;
77038;SDS011;65970;50.476;4.840;2024-03-07T07:07:30;10.13;;;6.90;;
77038;SDS011;65970;50.476;4.840;2024-03-07T07:12:31;17.42;;;8.48;;
77038;SDS011;65970;50.476;4.840;2024-03-07T07:17:31;12.68;;;7.55;;
77038;SDS011;65970;50.476;4.840;2024-03-07T07:22:32;15.02;;;8.95;;
77038;SDS011;65970;50.476;4.840;2024-03-07T07:27:32;19.42;;;11.10;;
77038;SDS011;65970;50.476;4.840;2024-03-07T07:32:33;17.70;;;10.13;;
77038;SDS011;65970;50.476;4.840;2024-03-07T07:37:33;21.42;;;10.25;;
77038;SDS011;65970;50.476;4.840;2024-03-07T07:42:37;16.02;;;9.18;;
77038;SDS011;65970;50.476;4.840;2024-03-07T07:52:44;16.85;;;9.88;;
77038;SDS011;65970;50.476;4.840;2024-03-07T07:57:48;16.48;;;10.10;;
77038;SDS011;65970;50.476;4.840;2024-03-07T08:02:54;23.17;;;12.80;;
77038;SDS011;65970;50.476;4.840;2024-03-07T08:07:57;20.38;;;11.43;;
77038;SDS011;65970;50.476;4.840;2024-03-07T08:13:00;19.45;;;11.45;;
77038;SDS011;65970;50.476;4.840;2024-03-07T08:18:01;19.83;;;11.13;;
77038;SDS011;65970;50.476;4.840;2024-03-07T08:23:02;17.63;;;10.95;;
77038;SDS011;65970;50.476;4.840;2024-03-07T08:28:02;18.60;;;10.85;;
77038;SDS011;65970;50.476;4.840;2024-03-07T08:33:03;16.27;;;10.13;;
77038;SDS011;65970;50.476;4.840;2024-03-07T08:38:04;18.85;;;10.77;;
77038;SDS011;65970;50.476;4.840;2024-03-07T08:43:04;16.08;;;10.02;;
77038;SDS011;65970;50.476;4.840;2024-03-07T08:48:05;27.30;;;11.82;;
77038;SDS011;65970;50.476;4.840;2024-03-07T08:53:06;18.33;;;10.48;;
77038;SDS011;65970;50.476;4.840;2024-03-07T08:58:06;18.67;;;11.40;;
77038;SDS011;65970;50.476;4.840;2024-03-07T09:03:07;17.98;;;9.98;;
77038;SDS011;65970;50.476;4.840;2024-03-07T09:08:08;23.52;;;11.73;;
77038;SDS011;65970;50.476;4.840;2024-03-07T09:13:08;20.75;;;11.38;;
77038;SDS011;65970;50.476;4.840;2024-03-07T09:18:09;19.25;;;10.70;;
77038;SDS011;65970;50.476;4.840;2024-03-07T09:23:09;17.63;;;10.32;;
77038;SDS011;65970;50.476;4.840;2024-03-07T09:28:10;17.05;;;8.23;;
77038;SDS011;65970;50.476;4.840;2024-03-07T09:33:10;19.20;;;9.82;;
77038;SDS011;65970;50.476;4.840;2024-03-07T09:38:11;15.65;;;9.27;;
77038;SDS011;65970;50.476;4.840;2024-03-07T09:43:11;18.23;;;9.27;;
77038;SDS011;65970;50.476;4.840;2024-03-07T09:48:13;17.75;;;10.45;;
77038;SDS011;65970;50.476;4.840;2024-03-07T09:53:13;17.95;;;8.85;;
77038;SDS011;65970;50.476;4.840;2024-03-07T09:58:17;8.73;;;5.75;;
77038;SDS011;65970;50.476;4.840;2024-03-07T10:03:20;14.18;;;7.68;;
77038;SDS011;65970;50.476;4.840;2024-03-07T10:08:22;18.63;;;9.93;;
77038;SDS011;65970;50.476;4.840;2024-03-07T10:13:23;17.75;;;9.75;;
77038;SDS011;65970;50.476;4.840;2024-03-07T10:18:23;14.45;;;8.68;;
77038;SDS011;65970;50.476;4.840;2024-03-07T10:23:24;17.88;;;9.40;;
77038;SDS011;65970;50.476;4.840;2024-03-07T10:28:26;15.90;;;8.20;;
77038;SDS011;65970;50.476;4.840;2024-03-07T10:33:27;20.15;;;9.55;;
77038;SDS011;65970;50.476;4.840;2024-03-07T10:38:28;20.27;;;10.90;;
77038;SDS011;65970;50.476;4.840;2024-03-07T10:43:28;17.77;;;9.55;;
77038;SDS011;65970;50.476;4.840;2024-03-07T10:48:30;19.27;;;10.07;;
77038;SDS011;65970;50.476;4.840;2024-03-07T10:58:57;18.98;;;11.43;;
77038;SDS011;65970;50.476;4.840;2024-03-07T11:03:58;19.17;;;10.13;;
77038;SDS011;65970;50.476;4.840;2024-03-07T11:09:02;17.92;;;10.02;;
77038;SDS011;65970;50.476;4.840;2024-03-07T11:14:04;18.95;;;10.70;;
77038;SDS011;65970;50.476;4.840;2024-03-07T11:24:28;19.35;;;10.77;;
77038;SDS011;65970;50.476;4.840;2024-03-07T11:34:44;17.83;;;9.13;;
77038;SDS011;65970;50.476;4.840;2024-03-07T11:39:46;21.20;;;8.82;;
77038;SDS011;65970;50.476;4.840;2024-03-07T11:44:48;13.43;;;8.77;;
77038;SDS011;65970;50.476;4.840;2024-03-07T11:49:52;16.45;;;8.63;;
77038;SDS011;65970;50.476;4.840;2024-03-07T11:54:53;18.48;;;7.72;;
77038;SDS011;65970;50.476;4.840;2024-03-07T11:59:53;17.30;;;7.75;;
77038;SDS011;65970;50.476;4.840;2024-03-07T12:04:54;14.95;;;8.13;;
77038;SDS011;65970;50.476;4.840;2024-03-07T12:09:55;12.57;;;6.85;;
77038;SDS011;65970;50.476;4.840;2024-03-07T12:14:55;14.98;;;8.30;;
77038;SDS011;65970;50.476;4.840;2024-03-07T12:19:56;13.82;;;7.93;;
77038;SDS011;65970;50.476;4.840;2024-03-07T12:25:00;14.15;;;7.95;;
77038;SDS011;65970;50.476;4.840;2024-03-07T12:30:14;14.85;;;6.00;;
77038;SDS011;65970;50.476;4.840;2024-03-07T12:35:15;12.13;;;5.75;;
77038;SDS011;65970;50.476;4.840;2024-03-07T12:40:16;14.20;;;7.82;;
77038;SDS011;65970;50.476;4.840;2024-03-07T12:45:17;16.58;;;9.38;;
77038;SDS011;65970;50.476;4.840;2024-03-07T12:50:20;14.02;;;8.13;;
77038;SDS011;65970;50.476;4.840;2024-03-07T13:00:21;13.80;;;8.20;;
77038;SDS011;65970;50.476;4.840;2024-03-07T13:05:22;14.52;;;8.85;;
77038;SDS011;65970;50.476;4.840;2024-03-07T13:10:22;12.00;;;7.53;;
77038;SDS011;65970;50.476;4.840;2024-03-07T13:15:23;12.77;;;7.95;;
77038;SDS011;65970;50.476;4.840;2024-03-07T13:20:23;15.00;;;7.85;;
77038;SDS011;65970;50.476;4.840;2024-03-07T13:25:25;14.20;;;8.05;;
77038;SDS011;65970;50.476;4.840;2024-03-07T13:30:26;14.52;;;7.90;;
77038;SDS011;65970;50.476;4.840;2024-03-07T13:35:27;14.50;;;9.57;;
77038;SDS011;65970;50.476;4.840;2024-03-07T13:40:28;16.33;;;8.65;;
77038;SDS011;65970;50.476;4.840;2024-03-07T13:45:30;11.88;;;7.18;;
77038;SDS011;65970;50.476;4.840;2024-03-07T13:50:32;12.82;;;7.90;;
77038;SDS011;65970;50.476;4.840;2024-03-07T13:55:34;9.30;;;5.70;;
77038;SDS011;65970;50.476;4.840;2024-03-07T14:00:47;12.05;;;7.20;;
77038;SDS011;65970;50.476;4.840;2024-03-07T14:21:47;11.43;;;6.78;;
77038;SDS011;65970;50.476;4.840;2024-03-07T14:32:16;10.38;;;6.93;;
77038;SDS011;65970;50.476;4.840;2024-03-07T14:37:25;8.75;;;6.57;;
77038;SDS011;65970;50.476;4.840;2024-03-07T14:42:28;11.40;;;7.07;;
77038;SDS011;65970;50.476;4.840;2024-03-07T14:47:29;10.07;;;6.45;;
77038;SDS011;65970;50.476;4.840;2024-03-07T14:52:29;11.32;;;6.43;;
77038;SDS011;65970;50.476;4.840;2024-03-07T14:57:30;13.30;;;8.02;;
77038;SDS011;65970;50.476;4.840;2024-03-07T15:02:30;11.98;;;7.13;;
77038;SDS011;65970;50.476;4.840;2024-03-07T15:07:31;14.30;;;7.90;;
77038;SDS011;65970;50.476;4.840;2024-03-07T15:12:31;10.88;;;7.03;;
77038;SDS011;65970;50.476;4.840;2024-03-07T15:17:32;10.85;;;6.82;;
77038;SDS011;65970;50.476;4.840;2024-03-07T15:22:32;10.52;;;6.43;;
77038;SDS011;65970;50.476;4.840;2024-03-07T15:27:33;12.05;;;8.05;;
77038;SDS011;65970;50.476;4.840;2024-03-07T15:32:33;10.70;;;6.20;;
77038;SDS011;65970;50.476;4.840;2024-03-07T15:37:36;9.88;;;6.55;;
77038;SDS011;65970;50.476;4.840;2024-03-07T15:42:44;10.67;;;6.33;;
77038;SDS011;65970;50.476;4.840;2024-03-07T15:47:45;13.38;;;7.25;;
77038;SDS011;65970;50.476;4.840;2024-03-07T15:52:49;10.57;;;6.85;;
77038;SDS011;65970;50.476;4.840;2024-03-07T15:57:51;10.63;;;6.50;;
77038;SDS011;65970;50.476;4.840;2024-03-07T16:07:54;8.57;;;5.70;;
77038;SDS011;65970;50.476;4.840;2024-03-07T16:12:56;9.70;;;5.82;;
77038;SDS011;65970;50.476;4.840;2024-03-07T16:23:00;12.02;;;7.03;;
77038;SDS011;65970;50.476;4.840;2024-03-07T16:28:01;9.23;;;5.43;;
77038;SDS011;65970;50.476;4.840;2024-03-07T16:33:01;9.32;;;6.00;;
77038;SDS011;65970;50.476;4.840;2024-03-07T16:38:02;10.45;;;7.15;;
77038;SDS011;65970;50.476;4.840;2024-03-07T16:43:03;10.05;;;5.97;;
77038;SDS011;65970;50.476;4.840;2024-03-07T16:48:03;8.52;;;4.53;;
77038;SDS011;65970;50.476;4.840;2024-03-07T16:53:04;7.80;;;4.95;;
77038;SDS011;65970;50.476;4.840;2024-03-07T16:58:05;7.57;;;3.97;;
77038;SDS011;65970;50.476;4.840;2024-03-07T17:03:06;9.57;;;5.10;;
77038;SDS011;65970;50.476;4.840;2024-03-07T17:08:08;7.20;;;4.13;;
77038;SDS011;65970;50.476;4.840;2024-03-07T17:13:09;6.68;;;4.32;;
77038;SDS011;65970;50.476;4.840;2024-03-07T17:18:10;8.82;;;4.75;;
77038;SDS011;65970;50.476;4.840;2024-03-07T17:23:11;7.22;;;4.75;;
77038;SDS011;65970;50.476;4.840;2024-03-07T17:28:11;7.30;;;4.65;;
77038;SDS011;65970;50.476;4.840;2024-03-07T17:33:12;7.63;;;4.60;;
77038;SDS011;65970;50.476;4.840;2024-03-07T17:38:12;8.73;;;5.18;;
77038;SDS011;65970;50.476;4.840;2024-03-07T17:43:13;9.85;;;6.22;;
77038;SDS011;65970;50.476;4.840;2024-03-07T17:48:13;8.63;;;4.88;;
77038;SDS011;65970;50.476;4.840;2024-03-07T17:53:14;7.82;;;5.85;;
77038;SDS011;65970;50.476;4.840;2024-03-07T17:58:14;10.43;;;5.32;;
77038;SDS011;65970;50.476;4.840;2024-03-07T18:03:15;7.70;;;4.97;;
77038;SDS011;65970;50.476;4.840;2024-03-07T18:08:16;7.28;;;4.90;;
77038;SDS011;65970;50.476;4.840;2024-03-07T18:13:16;9.68;;;5.00;;
77038;SDS011;65970;50.476;4.840;2024-03-07T18:18:17;7.40;;;4.70;;
77038;SDS011;65970;50.476;4.840;2024-03-07T18:23:17;7.03;;;4.55;;
77038;SDS011;65970;50.476;4.840;2024-03-07T18:28:18;6.13;;;4.38;;
77038;SDS011;65970;50.476;4.840;2024-03-07T18:33:18;6.18;;;4.30;;
77038;SDS011;65970;50.476;4.840;2024-03-07T18:38:19;6.57;;;4.68;;
77038;SDS011;65970;50.476;4.840;2024-03-07T18:43:19;8.05;;;5.10;;
77038;SDS011;65970;50.476;4.840;2024-03-07T18:48:20;8.77;;;4.90;;
77038;SDS011;65970;50.476;4.840;2024-03-07T18:53:21;10.15;;;4.53;;
77038;SDS011;65970;50.476;4.840;2024-03-07T18:58:21;8.73;;;4.75;;
77038;SDS011;65970;50.476;4.840;2024-03-07T19:03:22;8.55;;;5.38;;
77038;SDS011;65970;50.476;4.840;2024-03-07T19:08:22;8.35;;;4.88;;
77038;SDS011;65970;50.476;4.840;2024-03-07T19:13:23;10.65;;;5.82;;
77038;SDS011;65970;50.476;4.840;2024-03-07T19:18:24;8.02;;;4.65;;
77038;SDS011;65970;50.476;4.840;2024-03-07T19:23:25;9.38;;;5.70;;
77038;SDS011;65970;50.476;4.840;2024-03-07T19:28:25;9.63;;;5.22;;
77038;SDS011;65970;50.476;4.840;2024-03-07T19:33:26;8.65;;;5.10;;
77038;SDS011;65970;50.476;4.840;2024-03-07T19:38:27;7.38;;;5.57;;
77038;SDS011;65970;50.476;4.840;2024-03-07T19:43:27;9.07;;;5.63;;
77038;SDS011;65970;50.476;4.840;2024-03-07T19:48:28;7.35;;;4.82;;
77038;SDS011;65970;50.476;4.840;2024-03-07T19:53:28;7.93;;;5.55;;
77038;SDS011;65970;50.476;4.840;2024-03-07T19:58:29;9.32;;;5.53;;
77038;SDS011;65970;50.476;4.840;2024-03-07T20:03:29;9.55;;;5.63;;
77038;SDS011;65970;50.476;4.840;2024-03-07T20:08:30;7.20;;;5.18;;
77038;SDS011;65970;50.476;4.840;2024-03-07T20:13:30;8.88;;;6.05;;
77038;SDS011;65970;50.476;4.840;2024-03-07T20:18:31;11.95;;;5.47;;
77038;SDS011;65970;50.476;4.840;2024-03-07T20:23:32;9.15;;;5.95;;
77038;SDS011;65970;50.476;4.840;2024-03-07T20:28:32;9.25;;;5.65;;
77038;SDS011;65970;50.476;4.840;2024-03-07T20:33:33;8.70;;;5.22;;
77038;SDS011;65970;50.476;4.840;2024-03-07T20:38:33;12.38;;;6.65;;
77038;SDS011;65970;50.476;4.840;2024-03-07T20:43:35;9.32;;;6.35;;
77038;SDS011;65970;50.476;4.840;2024-03-07T20:48:36;11.15;;;5.90;;
77038;SDS011;65970;50.476;4.840;2024-03-07T20:53:37;19.38;;;8.93;;
77038;SDS011;65970;50.476;4.840;2024-03-07T20:58:37;13.95;;;7.50;;
77038;SDS011;65970;50.476;4.840;2024-03-07T21:03:38;9.93;;;5.63;;
77038;SDS011;65970;50.476;4.840;2024-03-07T21:08:39;8.43;;;5.53;;
77038;SDS011;65970;50.476;4.840;2024-03-07T21:13:39;9.77;;;5.38;;
77038;SDS011;65970;50.476;4.840;2024-03-07T21:18:40;8.90;;;5.57;;
77038;SDS011;65970;50.476;4.840;2024-03-07T21:23:40;7.97;;;5.05;;
77038;SDS011;65970;50.476;4.840;2024-03-07T21:28:41;8.02;;;5.43;;
77038;SDS011;65970;50.476;4.840;2024-03-07T21:33:42;11.13;;;5.40;;
77038;SDS011;65970;50.476;4.840;2024-03-07T21:38:42;6.25;;;4.43;;
77038;SDS011;65970;50.476;4.840;2024-03-07T21:43:43;7.78;;;4.80;;
77038;SDS011;65970;50.476;4.840;2024-03-07T21:48:43;8.25;;;4.85;;
77038;SDS011;65970;50.476;4.840;2024-03-07T21:53:44;8.02;;;5.05;;
77038;SDS011;65970;50.476;4.840;2024-03-07T21:58:45;8.48;;;4.88;;
77038;SDS011;65970;50.476;4.840;2024-03-07T22:03:45;8.65;;;4.95;;
77038;SDS011;65970;50.476;4.840;2024-03-07T22:08:46;11.50;;;6.20;;
77038;SDS011;65970;50.476;4.840;2024-03-07T22:13:46;8.32;;;5.35;;
77038;SDS011;65970;50.476;4.840;2024-03-07T22:18:47;9.45;;;4.93;;
77038;SDS011;65970;50.476;4.840;2024-03-07T22:23:47;9.73;;;5.75;;
77038;SDS011;65970;50.476;4.840;2024-03-07T22:28:48;9.10;;;5.38;;
77038;SDS011;65970;50.476;4.840;2024-03-07T22:33:48;9.63;;;5.68;;
77038;SDS011;65970;50.476;4.840;2024-03-07T22:38:49;10.38;;;5.65;;
77038;SDS011;65970;50.476;4.840;2024-03-07T22:43:50;9.00;;;4.88;;
77038;SDS011;65970;50.476;4.840;2024-03-07T22:48:50;7.68;;;5.72;;
77038;SDS011;65970;50.476;4.840;2024-03-07T22:53:51;5.82;;;4.80;;
77038;SDS011;65970;50.476;4.840;2024-03-07T22:58:51;7.72;;;4.65;;
77038;SDS011;65970;50.476;4.840;2024-03-07T23:03:52;8.43;;;5.25;;
77038;SDS011;65970;50.476;4.840;2024-03-07T23:08:52;7.68;;;5.65;;
77038;SDS011;65970;50.476;4.840;2024-03-07T23:13:53;8.25;;;5.05;;
77038;SDS011;65970;50.476;4.840;2024-03-07T23:18:54;10.10;;;5.72;;
77038;SDS011;65970;50.476;4.840;2024-03-07T23:23:55;9.65;;;4.85;;
77038;SDS011;65970;50.476;4.840;2024-03-07T23:28:56;9.43;;;4.85;;
77038;SDS011;65970;50.476;4.840;2024-03-07T23:33:56;8.68;;;5.15;;
77038;SDS011;65970;50.476;4.840;2024-03-07T23:38:57;9.10;;;5.70;;
77038;SDS011;65970;50.476;4.840;2024-03-07T23:43:57;15.13;;;7.43;;
77038;SDS011;65970;50.476;4.840;2024-03-07T23:48:58;21.63;;;10.15;;
77038;SDS011;65970;50.476;4.840;2024-03-07T23:53:59;19.65;;;9.65;;
77038;SDS011;65970;50.476;4.840;2024-03-07T23:58:59;14.80;;;9.38;;
